Hauptseite
METAR-TAF:

METAR-TAF

Flughäfen :

Flughafen Skopje

Skopje, Mazedonien

Breite: 41-58N, Länge: 021-39E, Höhe: 238 m

Beobachtung

Neuester Wetterbericht von vor 33 Minuten, um 11:30 UTC
Wind 3 kt aus West/Nordwest
Temperatur 17°C
Luftfeuchtigkeit 36%
Luftdruck 1024 hPa
Sichtweite 10 km oder mehr
keine Wolken unter 1500 m und keine Kumulonimbus oder Gewitterwolken

METAR: LWSK 201130Z 29003KT CAVOK 17/02 Q1024 NOSIG

Zeit: 13:03 (12:03 UTC)

Prognose

Neuester Wetterbericht von vor 33 Minuten, um 11:30 UTC
Gültige Prognose vom 20 um 12 UTC bis 21 um 12 UTC
Wind 5 kt aus West/Nordwest
Sichtweite 10 km oder mehr
keine Wolken unter 1500 m und keine Kumulonimbus oder Gewitterwolken
Zeitweise
vom 20 um 13 UTC bis 20 um 19 UTC
Wind 15 kt aus Nord/Nordost

TAF: LWSK 201130Z 2012/2112 30005KT CAVOK TEMPO 2013/2019 02015KT

Wetterbeobachtungen und Prognosen von mehr als 4000 Flughäfen (METAR und TAF Bericht).

Die verfügbaren Stationen werden durch gelbe und rote Markierungen auf der Karte dargestellt.

Führen Sie die Maus auf sie, um den Namen der Station zu sehen.

Darauf klicken, um die Beobachtung von Wetterbeobachtungen und Prognosen zu sehen.

Um die Karte zu ändern : klicken Sie auf den grünen Tasten mit einem schwarzen Kreuz Zum Vergrößern, auf den grünen Button mit einem Gedankenstrich zu verkleinern, oder auf die grünen Pfeile für benachbarte Karten.


METAR-TAF: